createdAt,value
2019-05-22T00:06:31.069Z,10.40
2019-05-22T00:17:04.401Z,9.83
2019-05-22T00:27:39.268Z,9.90
2019-05-22T00:38:13.961Z,9.55
2019-05-22T00:48:48.924Z,9.62
2019-05-22T00:59:25.497Z,9.29
2019-05-22T01:10:03.335Z,9.24
2019-05-22T01:20:40.198Z,9.58
2019-05-22T01:31:18.808Z,9.48
2019-05-22T01:41:52.487Z,9.28
2019-05-22T01:52:28.094Z,9.14
2019-05-22T02:03:01.676Z,9.19
2019-05-22T02:13:47.761Z,9.22
2019-05-22T02:24:23.303Z,9.14
2019-05-22T02:34:57.668Z,9.04
2019-05-22T02:45:31.114Z,9.16
2019-05-22T02:56:05.675Z,9.17
2019-05-22T03:06:39.379Z,9.41
2019-05-22T03:17:15.802Z,9.40
2019-05-22T03:27:54.347Z,10.04
2019-05-22T03:38:29.012Z,11.68
2019-05-22T03:49:03.546Z,13.03
2019-05-22T03:59:38.177Z,14.29
2019-05-22T04:10:12.928Z,15.19
2019-05-22T04:20:46.709Z,15.85
2019-05-22T04:31:19.486Z,17.02
2019-05-22T04:41:53.728Z,16.88
2019-05-22T04:52:27.340Z,18.25
2019-05-22T05:03:01.725Z,18.94
2019-05-22T05:13:35.441Z,20.07
2019-05-22T05:24:08.830Z,19.88
2019-05-22T05:35:03.714Z,19.87
2019-05-22T05:45:38.101Z,20.37
2019-05-22T05:56:21.783Z,21.79
2019-05-22T06:07:23.984Z,20.01
2019-05-22T06:18:09.539Z,21.40
2019-05-22T06:28:45.202Z,22.24
2019-05-22T06:39:21.669Z,21.81
2019-05-22T06:50:01.451Z,21.09
2019-05-22T07:00:34.926Z,21.42
2019-05-22T07:11:08.717Z,24.74
2019-05-22T07:21:43.219Z,24.77
2019-05-22T07:32:19.642Z,24.61
2019-05-22T07:42:53.146Z,26.47
2019-05-22T07:53:26.548Z,28.57
2019-05-22T08:04:00.065Z,28.78
2019-05-22T08:14:33.923Z,29.40
2019-05-22T08:25:07.390Z,31.31
2019-05-22T08:35:41.097Z,30.14
2019-05-22T08:46:14.162Z,27.87
2019-05-22T08:56:59.703Z,27.16
2019-05-22T09:07:33.307Z,27.49
2019-05-22T09:18:08.054Z,25.94
2019-05-22T09:28:42.277Z,22.98
2019-05-22T09:39:15.090Z,23.57
2019-05-22T09:49:49.833Z,22.94
2019-05-22T10:00:25.305Z,23.61
2019-05-22T10:10:58.661Z,25.07
2019-05-22T10:21:32.321Z,26.62
2019-05-22T10:32:05.862Z,29.06
2019-05-22T10:42:39.313Z,27.37
2019-05-22T10:53:13.792Z,26.80
2019-05-22T11:03:47.225Z,26.12
2019-05-22T11:14:20.609Z,25.68
2019-05-22T11:24:54.178Z,26.30
2019-05-22T11:35:28.794Z,25.49
2019-05-22T11:46:02.305Z,26.12
2019-05-22T11:56:35.606Z,27.99
2019-05-22T12:07:09.978Z,26.94
2019-05-22T12:17:43.618Z,27.31
2019-05-22T12:28:17.170Z,26.39
2019-05-22T12:38:51.160Z,27.55
2019-05-22T12:52:18.350Z,27.47
2019-05-22T13:02:51.743Z,27.07
2019-05-22T13:13:25.200Z,26.82
2019-05-22T13:23:59.764Z,26.27
2019-05-22T13:34:34.219Z,25.36
2019-05-22T13:45:07.879Z,25.19
2019-05-22T13:55:41.534Z,25.83
2019-05-22T14:06:15.198Z,25.99
2019-05-22T14:16:49.420Z,26.01
2019-05-22T14:27:23.234Z,25.73
2019-05-22T14:37:56.709Z,25.23
2019-05-22T14:48:30.248Z,25.23
2019-05-22T14:59:04.809Z,25.33
2019-05-22T15:09:38.219Z,24.37
2019-05-22T15:20:11.615Z,23.39
2019-05-22T15:30:45.150Z,23.23
2019-05-22T15:41:19.527Z,23.13
2019-05-22T15:51:54.141Z,23.71
2019-05-22T16:02:29.000Z,23.42
2019-05-22T16:13:03.722Z,20.77
2019-05-22T16:23:37.454Z,18.86
2019-05-22T16:34:10.852Z,17.17
2019-05-22T16:44:44.170Z,17.00
2019-05-22T16:55:18.399Z,16.57
2019-05-22T17:05:54.019Z,16.23
2019-05-22T17:16:31.466Z,16.00
2019-05-22T17:27:07.201Z,14.98
2019-05-22T17:37:41.656Z,14.26
2019-05-22T17:48:17.219Z,14.03
2019-05-22T17:58:50.922Z,13.88
2019-05-22T18:09:25.506Z,13.92
2019-05-22T18:19:59.187Z,14.18
2019-05-22T18:30:35.029Z,15.11
2019-05-22T18:41:08.687Z,14.93
2019-05-22T18:51:43.227Z,14.47
2019-05-22T19:02:17.764Z,14.21
2019-05-22T19:12:50.436Z,14.16
2019-05-22T19:23:24.945Z,14.05
2019-05-22T19:33:58.721Z,13.56
2019-05-22T19:44:33.380Z,13.21
2019-05-22T19:55:07.228Z,12.86
2019-05-22T20:05:42.630Z,12.59
2019-05-22T20:16:15.594Z,12.88
2019-05-22T20:26:50.178Z,12.73
2019-05-22T20:37:23.751Z,12.23
2019-05-22T20:48:00.250Z,11.89
2019-05-22T20:58:36.004Z,11.47
2019-05-22T21:09:09.701Z,11.26
2019-05-22T21:19:43.241Z,11.27
2019-05-22T21:30:17.609Z,11.45
2019-05-22T21:40:50.237Z,11.71
2019-05-22T21:51:23.932Z,11.60
2019-05-22T22:02:02.810Z,11.67
2019-05-22T22:12:38.588Z,11.67
2019-05-22T22:23:13.238Z,11.46
2019-05-22T22:33:49.284Z,11.96
2019-05-22T22:44:24.694Z,12.77
2019-05-22T22:54:58.451Z,12.84
2019-05-22T23:05:33.241Z,12.94
2019-05-22T23:16:07.933Z,12.74
2019-05-22T23:26:41.630Z,12.58
2019-05-22T23:37:17.053Z,12.21
2019-05-22T23:47:53.503Z,11.74
2019-05-22T23:58:28.356Z,11.38
